sensor_id;sensor_type;location;lat;lon;timestamp;P1;durP1;ratioP1;P2;durP2;ratioP2
4724;SDS011;2376;53.544;10.226;2022-07-10T00:00:24;2.40;;;1.30;;
4724;SDS011;2376;53.544;10.226;2022-07-10T00:02:53;4.40;;;1.10;;
4724;SDS011;2376;53.544;10.226;2022-07-10T00:05:20;3.70;;;1.00;;
4724;SDS011;2376;53.544;10.226;2022-07-10T00:07:47;4.90;;;1.00;;
4724;SDS011;2376;53.544;10.226;2022-07-10T00:10:15;4.60;;;1.87;;
4724;SDS011;2376;53.544;10.226;2022-07-10T00:12:42;6.83;;;1.20;;
4724;SDS011;2376;53.544;10.226;2022-07-10T00:15:09;2.17;;;1.20;;
4724;SDS011;2376;53.544;10.226;2022-07-10T00:17:37;2.87;;;1.23;;
4724;SDS011;2376;53.544;10.226;2022-07-10T00:20:06;3.67;;;1.20;;
4724;SDS011;2376;53.544;10.226;2022-07-10T00:22:35;2.47;;;1.20;;
4724;SDS011;2376;53.544;10.226;2022-07-10T00:25:03;1.83;;;1.47;;
4724;SDS011;2376;53.544;10.226;2022-07-10T00:27:30;6.70;;;1.17;;
4724;SDS011;2376;53.544;10.226;2022-07-10T00:29:58;8.23;;;1.40;;
4724;SDS011;2376;53.544;10.226;2022-07-10T00:32:25;4.73;;;1.60;;
4724;SDS011;2376;53.544;10.226;2022-07-10T00:34:51;5.40;;;1.30;;
4724;SDS011;2376;53.544;10.226;2022-07-10T00:37:19;4.53;;;1.60;;
4724;SDS011;2376;53.544;10.226;2022-07-10T00:39:46;7.00;;;1.37;;
4724;SDS011;2376;53.544;10.226;2022-07-10T00:42:13;2.50;;;1.20;;
4724;SDS011;2376;53.544;10.226;2022-07-10T00:44:41;2.57;;;1.20;;
4724;SDS011;2376;53.544;10.226;2022-07-10T00:47:09;1.47;;;1.00;;
4724;SDS011;2376;53.544;10.226;2022-07-10T00:49:37;3.53;;;1.03;;
4724;SDS011;2376;53.544;10.226;2022-07-10T00:52:05;8.17;;;1.40;;
4724;SDS011;2376;53.544;10.226;2022-07-10T00:54:35;3.23;;;1.23;;
4724;SDS011;2376;53.544;10.226;2022-07-10T00:57:03;4.60;;;1.20;;
4724;SDS011;2376;53.544;10.226;2022-07-10T00:59:33;4.03;;;1.83;;
4724;SDS011;2376;53.544;10.226;2022-07-10T01:02:00;5.27;;;1.40;;
4724;SDS011;2376;53.544;10.226;2022-07-10T01:04:27;6.83;;;2.60;;
4724;SDS011;2376;53.544;10.226;2022-07-10T01:06:55;6.60;;;1.47;;
4724;SDS011;2376;53.544;10.226;2022-07-10T01:09:22;4.97;;;2.90;;
4724;SDS011;2376;53.544;10.226;2022-07-10T01:11:50;2.57;;;1.20;;
4724;SDS011;2376;53.544;10.226;2022-07-10T01:14:17;7.20;;;2.13;;
4724;SDS011;2376;53.544;10.226;2022-07-10T01:16:45;5.30;;;1.77;;
4724;SDS011;2376;53.544;10.226;2022-07-10T01:19:12;1.97;;;1.07;;
4724;SDS011;2376;53.544;10.226;2022-07-10T01:21:40;2.40;;;1.13;;
4724;SDS011;2376;53.544;10.226;2022-07-10T01:24:08;4.10;;;1.30;;
4724;SDS011;2376;53.544;10.226;2022-07-10T01:26:36;4.60;;;1.37;;
4724;SDS011;2376;53.544;10.226;2022-07-10T01:29:07;5.83;;;1.33;;
4724;SDS011;2376;53.544;10.226;2022-07-10T01:31:34;7.00;;;1.50;;
4724;SDS011;2376;53.544;10.226;2022-07-10T01:34:02;5.00;;;1.50;;
4724;SDS011;2376;53.544;10.226;2022-07-10T01:36:32;1.90;;;1.10;;
4724;SDS011;2376;53.544;10.226;2022-07-10T01:39:00;2.93;;;1.23;;
4724;SDS011;2376;53.544;10.226;2022-07-10T01:41:27;4.30;;;3.20;;
4724;SDS011;2376;53.544;10.226;2022-07-10T01:43:54;2.30;;;1.10;;
4724;SDS011;2376;53.544;10.226;2022-07-10T01:46:21;5.27;;;1.50;;
4724;SDS011;2376;53.544;10.226;2022-07-10T01:48:49;5.70;;;1.30;;
4724;SDS011;2376;53.544;10.226;2022-07-10T01:51:15;3.73;;;1.40;;
4724;SDS011;2376;53.544;10.226;2022-07-10T01:53:42;8.60;;;2.07;;
4724;SDS011;2376;53.544;10.226;2022-07-10T01:56:11;3.60;;;1.30;;
4724;SDS011;2376;53.544;10.226;2022-07-10T01:58:39;5.17;;;1.67;;
4724;SDS011;2376;53.544;10.226;2022-07-10T02:01:06;6.20;;;1.53;;
4724;SDS011;2376;53.544;10.226;2022-07-10T02:03:34;4.43;;;1.20;;
4724;SDS011;2376;53.544;10.226;2022-07-10T02:06:18;4.00;;;1.40;;
4724;SDS011;2376;53.544;10.226;2022-07-10T02:08:45;3.80;;;1.13;;
4724;SDS011;2376;53.544;10.226;2022-07-10T02:11:13;4.63;;;1.40;;
4724;SDS011;2376;53.544;10.226;2022-07-10T02:13:40;3.70;;;1.30;;
4724;SDS011;2376;53.544;10.226;2022-07-10T02:16:07;2.60;;;1.20;;
4724;SDS011;2376;53.544;10.226;2022-07-10T02:18:34;4.63;;;1.30;;
4724;SDS011;2376;53.544;10.226;2022-07-10T02:21:00;4.10;;;1.40;;
4724;SDS011;2376;53.544;10.226;2022-07-10T02:23:27;6.93;;;1.33;;
4724;SDS011;2376;53.544;10.226;2022-07-10T02:25:54;2.63;;;1.70;;
4724;SDS011;2376;53.544;10.226;2022-07-10T02:28:22;3.30;;;1.63;;
4724;SDS011;2376;53.544;10.226;2022-07-10T02:30:50;2.73;;;1.60;;
4724;SDS011;2376;53.544;10.226;2022-07-10T02:33:16;7.23;;;1.87;;
4724;SDS011;2376;53.544;10.226;2022-07-10T02:35:43;26.83;;;2.30;;
4724;SDS011;2376;53.544;10.226;2022-07-10T02:38:10;2.70;;;1.70;;
4724;SDS011;2376;53.544;10.226;2022-07-10T02:40:37;2.97;;;1.30;;
4724;SDS011;2376;53.544;10.226;2022-07-10T02:43:03;1.87;;;0.97;;
4724;SDS011;2376;53.544;10.226;2022-07-10T02:45:31;5.70;;;1.23;;
4724;SDS011;2376;53.544;10.226;2022-07-10T02:47:58;6.40;;;1.40;;
4724;SDS011;2376;53.544;10.226;2022-07-10T02:50:25;4.30;;;1.77;;
4724;SDS011;2376;53.544;10.226;2022-07-10T02:52:52;3.47;;;1.67;;
4724;SDS011;2376;53.544;10.226;2022-07-10T02:55:19;3.53;;;1.90;;
4724;SDS011;2376;53.544;10.226;2022-07-10T02:57:45;3.90;;;1.40;;
4724;SDS011;2376;53.544;10.226;2022-07-10T03:00:12;3.03;;;1.43;;
4724;SDS011;2376;53.544;10.226;2022-07-10T03:02:41;3.77;;;1.33;;
4724;SDS011;2376;53.544;10.226;2022-07-10T03:05:07;2.23;;;1.30;;
4724;SDS011;2376;53.544;10.226;2022-07-10T03:07:34;6.47;;;1.73;;
4724;SDS011;2376;53.544;10.226;2022-07-10T03:10:01;6.00;;;1.43;;
4724;SDS011;2376;53.544;10.226;2022-07-10T03:12:28;7.63;;;1.43;;
4724;SDS011;2376;53.544;10.226;2022-07-10T03:14:55;4.40;;;1.77;;
4724;SDS011;2376;53.544;10.226;2022-07-10T03:17:21;2.73;;;1.40;;
4724;SDS011;2376;53.544;10.226;2022-07-10T03:19:49;11.83;;;1.90;;
4724;SDS011;2376;53.544;10.226;2022-07-10T03:22:16;3.50;;;1.70;;
4724;SDS011;2376;53.544;10.226;2022-07-10T03:24:43;5.63;;;1.90;;
4724;SDS011;2376;53.544;10.226;2022-07-10T03:27:11;7.67;;;1.50;;
4724;SDS011;2376;53.544;10.226;2022-07-10T03:29:38;5.33;;;2.07;;
4724;SDS011;2376;53.544;10.226;2022-07-10T03:32:05;3.53;;;1.77;;
4724;SDS011;2376;53.544;10.226;2022-07-10T03:34:33;9.47;;;2.03;;
4724;SDS011;2376;53.544;10.226;2022-07-10T03:37:01;5.53;;;1.80;;
4724;SDS011;2376;53.544;10.226;2022-07-10T03:39:27;7.00;;;1.80;;
4724;SDS011;2376;53.544;10.226;2022-07-10T03:41:54;4.30;;;1.50;;
4724;SDS011;2376;53.544;10.226;2022-07-10T03:44:21;7.57;;;1.90;;
4724;SDS011;2376;53.544;10.226;2022-07-10T03:46:48;6.93;;;2.30;;
4724;SDS011;2376;53.544;10.226;2022-07-10T03:49:14;4.50;;;2.40;;
4724;SDS011;2376;53.544;10.226;2022-07-10T03:51:41;5.80;;;1.80;;
4724;SDS011;2376;53.544;10.226;2022-07-10T03:54:09;8.73;;;2.27;;
4724;SDS011;2376;53.544;10.226;2022-07-10T03:56:36;5.70;;;2.00;;
4724;SDS011;2376;53.544;10.226;2022-07-10T03:59:20;8.80;;;1.90;;
4724;SDS011;2376;53.544;10.226;2022-07-10T04:01:47;7.10;;;2.07;;
4724;SDS011;2376;53.544;10.226;2022-07-10T04:04:13;6.23;;;2.43;;
4724;SDS011;2376;53.544;10.226;2022-07-10T04:06:40;5.93;;;2.10;;
4724;SDS011;2376;53.544;10.226;2022-07-10T04:09:06;4.00;;;2.67;;
4724;SDS011;2376;53.544;10.226;2022-07-10T04:11:35;10.10;;;3.20;;
4724;SDS011;2376;53.544;10.226;2022-07-10T04:14:01;3.83;;;2.03;;
4724;SDS011;2376;53.544;10.226;2022-07-10T04:16:28;6.67;;;2.10;;
4724;SDS011;2376;53.544;10.226;2022-07-10T04:18:54;6.23;;;2.33;;
4724;SDS011;2376;53.544;10.226;2022-07-10T04:21:21;8.43;;;2.63;;
4724;SDS011;2376;53.544;10.226;2022-07-10T04:23:48;9.80;;;2.20;;
4724;SDS011;2376;53.544;10.226;2022-07-10T04:26:15;8.30;;;3.10;;
4724;SDS011;2376;53.544;10.226;2022-07-10T04:28:43;10.00;;;2.80;;
4724;SDS011;2376;53.544;10.226;2022-07-10T04:31:09;9.10;;;2.70;;
4724;SDS011;2376;53.544;10.226;2022-07-10T04:33:36;8.40;;;2.60;;
4724;SDS011;2376;53.544;10.226;2022-07-10T04:36:03;14.70;;;2.70;;
4724;SDS011;2376;53.544;10.226;2022-07-10T04:38:29;10.83;;;3.50;;
4724;SDS011;2376;53.544;10.226;2022-07-10T04:40:56;9.50;;;3.50;;
4724;SDS011;2376;53.544;10.226;2022-07-10T04:43:23;5.97;;;2.60;;
4724;SDS011;2376;53.544;10.226;2022-07-10T04:45:52;7.10;;;2.57;;
4724;SDS011;2376;53.544;10.226;2022-07-10T04:48:18;7.10;;;2.50;;
4724;SDS011;2376;53.544;10.226;2022-07-10T04:50:45;10.90;;;2.57;;
4724;SDS011;2376;53.544;10.226;2022-07-10T04:53:12;7.93;;;2.60;;
4724;SDS011;2376;53.544;10.226;2022-07-10T04:55:39;8.30;;;2.60;;
4724;SDS011;2376;53.544;10.226;2022-07-10T04:58:05;11.40;;;2.53;;
4724;SDS011;2376;53.544;10.226;2022-07-10T05:00:32;12.53;;;2.53;;
4724;SDS011;2376;53.544;10.226;2022-07-10T05:03:00;10.33;;;2.87;;
4724;SDS011;2376;53.544;10.226;2022-07-10T05:05:27;13.40;;;2.93;;
4724;SDS011;2376;53.544;10.226;2022-07-10T05:07:53;9.50;;;2.73;;
4724;SDS011;2376;53.544;10.226;2022-07-10T05:10:20;12.47;;;3.50;;
4724;SDS011;2376;53.544;10.226;2022-07-10T05:12:46;11.40;;;3.27;;
4724;SDS011;2376;53.544;10.226;2022-07-10T05:15:13;10.20;;;3.37;;
4724;SDS011;2376;53.544;10.226;2022-07-10T05:17:40;10.10;;;2.70;;
4724;SDS011;2376;53.544;10.226;2022-07-10T05:20:09;7.70;;;2.13;;
4724;SDS011;2376;53.544;10.226;2022-07-10T05:22:36;8.23;;;2.70;;
4724;SDS011;2376;53.544;10.226;2022-07-10T05:25:03;9.90;;;3.23;;
4724;SDS011;2376;53.544;10.226;2022-07-10T05:27:30;12.90;;;2.37;;
4724;SDS011;2376;53.544;10.226;2022-07-10T05:29:56;8.10;;;2.77;;
4724;SDS011;2376;53.544;10.226;2022-07-10T05:32:23;11.87;;;2.30;;
4724;SDS011;2376;53.544;10.226;2022-07-10T05:34:50;12.50;;;3.10;;
4724;SDS011;2376;53.544;10.226;2022-07-10T05:37:18;6.67;;;2.37;;
4724;SDS011;2376;53.544;10.226;2022-07-10T05:39:45;10.93;;;2.50;;
4724;SDS011;2376;53.544;10.226;2022-07-10T05:42:12;6.40;;;2.50;;
4724;SDS011;2376;53.544;10.226;2022-07-10T05:44:38;10.00;;;2.87;;
4724;SDS011;2376;53.544;10.226;2022-07-10T05:47:05;8.80;;;3.30;;
4724;SDS011;2376;53.544;10.226;2022-07-10T05:49:32;12.90;;;2.50;;
4724;SDS011;2376;53.544;10.226;2022-07-10T05:51:58;6.20;;;3.73;;
4724;SDS011;2376;53.544;10.226;2022-07-10T05:54:26;15.33;;;3.23;;
4724;SDS011;2376;53.544;10.226;2022-07-10T05:56:53;5.73;;;3.53;;
4724;SDS011;2376;53.544;10.226;2022-07-10T05:59:19;11.90;;;3.17;;
4724;SDS011;2376;53.544;10.226;2022-07-10T06:01:46;11.70;;;3.23;;
4724;SDS011;2376;53.544;10.226;2022-07-10T06:04:13;7.97;;;2.53;;
4724;SDS011;2376;53.544;10.226;2022-07-10T06:06:40;6.53;;;2.47;;
4724;SDS011;2376;53.544;10.226;2022-07-10T06:09:06;6.77;;;2.60;;
4724;SDS011;2376;53.544;10.226;2022-07-10T06:11:34;8.53;;;2.90;;
4724;SDS011;2376;53.544;10.226;2022-07-10T06:14:01;7.67;;;3.93;;
4724;SDS011;2376;53.544;10.226;2022-07-10T06:16:28;7.20;;;2.80;;
4724;SDS011;2376;53.544;10.226;2022-07-10T06:18:55;11.10;;;2.80;;
4724;SDS011;2376;53.544;10.226;2022-07-10T06:21:21;8.40;;;3.23;;
4724;SDS011;2376;53.544;10.226;2022-07-10T06:23:48;15.33;;;2.93;;
4724;SDS011;2376;53.544;10.226;2022-07-10T06:26:15;4.97;;;2.80;;
4724;SDS011;2376;53.544;10.226;2022-07-10T06:28:43;9.53;;;3.30;;
4724;SDS011;2376;53.544;10.226;2022-07-10T06:31:09;12.70;;;2.93;;
4724;SDS011;2376;53.544;10.226;2022-07-10T06:33:36;20.60;;;3.50;;
4724;SDS011;2376;53.544;10.226;2022-07-10T06:36:04;17.10;;;3.17;;
4724;SDS011;2376;53.544;10.226;2022-07-10T06:38:32;13.03;;;2.23;;
4724;SDS011;2376;53.544;10.226;2022-07-10T06:40:58;8.27;;;2.80;;
4724;SDS011;2376;53.544;10.226;2022-07-10T06:43:25;5.47;;;2.67;;
4724;SDS011;2376;53.544;10.226;2022-07-10T06:45:53;13.60;;;2.50;;
4724;SDS011;2376;53.544;10.226;2022-07-10T06:48:21;11.37;;;3.00;;
4724;SDS011;2376;53.544;10.226;2022-07-10T06:50:47;15.47;;;2.67;;
4724;SDS011;2376;53.544;10.226;2022-07-10T06:53:14;6.20;;;2.37;;
4724;SDS011;2376;53.544;10.226;2022-07-10T06:55:41;7.53;;;2.07;;
4724;SDS011;2376;53.544;10.226;2022-07-10T06:58:07;4.80;;;1.90;;
4724;SDS011;2376;53.544;10.226;2022-07-10T07:00:34;8.67;;;2.53;;
4724;SDS011;2376;53.544;10.226;2022-07-10T07:03:02;7.17;;;2.53;;
4724;SDS011;2376;53.544;10.226;2022-07-10T07:05:29;6.37;;;2.03;;
4724;SDS011;2376;53.544;10.226;2022-07-10T07:07:56;4.97;;;2.00;;
4724;SDS011;2376;53.544;10.226;2022-07-10T07:10:22;10.90;;;3.00;;
4724;SDS011;2376;53.544;10.226;2022-07-10T07:12:49;5.93;;;2.70;;
4724;SDS011;2376;53.544;10.226;2022-07-10T07:15:16;8.70;;;2.37;;
4724;SDS011;2376;53.544;10.226;2022-07-10T07:17:43;4.80;;;1.67;;
4724;SDS011;2376;53.544;10.226;2022-07-10T07:20:23;9.80;;;1.97;;
4724;SDS011;2376;53.544;10.226;2022-07-10T07:23:08;3.13;;;1.77;;
4724;SDS011;2376;53.544;10.226;2022-07-10T07:25:37;8.87;;;1.97;;
4724;SDS011;2376;53.544;10.226;2022-07-10T07:28:06;6.70;;;2.57;;
4724;SDS011;2376;53.544;10.226;2022-07-10T07:30:33;17.30;;;2.57;;
4724;SDS011;2376;53.544;10.226;2022-07-10T07:33:00;5.33;;;2.03;;
4724;SDS011;2376;53.544;10.226;2022-07-10T07:35:28;4.37;;;1.83;;
4724;SDS011;2376;53.544;10.226;2022-07-10T07:37:55;6.47;;;1.70;;
4724;SDS011;2376;53.544;10.226;2022-07-10T07:40:22;9.87;;;2.10;;
4724;SDS011;2376;53.544;10.226;2022-07-10T07:42:49;3.13;;;1.90;;
4724;SDS011;2376;53.544;10.226;2022-07-10T07:45:16;5.37;;;2.53;;
4724;SDS011;2376;53.544;10.226;2022-07-10T07:47:44;8.87;;;2.17;;
4724;SDS011;2376;53.544;10.226;2022-07-10T07:50:12;9.07;;;1.73;;
4724;SDS011;2376;53.544;10.226;2022-07-10T07:52:41;4.60;;;1.97;;
4724;SDS011;2376;53.544;10.226;2022-07-10T07:55:08;5.70;;;2.17;;
4724;SDS011;2376;53.544;10.226;2022-07-10T07:57:35;3.63;;;1.67;;
4724;SDS011;2376;53.544;10.226;2022-07-10T08:00:02;7.80;;;1.70;;
4724;SDS011;2376;53.544;10.226;2022-07-10T08:02:31;9.57;;;2.47;;
4724;SDS011;2376;53.544;10.226;2022-07-10T08:04:58;6.70;;;1.93;;
4724;SDS011;2376;53.544;10.226;2022-07-10T08:07:32;9.63;;;1.57;;
4724;SDS011;2376;53.544;10.226;2022-07-10T08:10:01;7.40;;;2.33;;
4724;SDS011;2376;53.544;10.226;2022-07-10T08:12:27;9.07;;;1.53;;
4724;SDS011;2376;53.544;10.226;2022-07-10T08:14:54;3.87;;;2.00;;
4724;SDS011;2376;53.544;10.226;2022-07-10T08:17:21;2.50;;;1.87;;
4724;SDS011;2376;53.544;10.226;2022-07-10T08:19:47;11.03;;;1.93;;
4724;SDS011;2376;53.544;10.226;2022-07-10T08:22:14;5.57;;;1.80;;
4724;SDS011;2376;53.544;10.226;2022-07-10T08:24:41;7.33;;;2.40;;
4724;SDS011;2376;53.544;10.226;2022-07-10T08:27:09;12.97;;;2.10;;
4724;SDS011;2376;53.544;10.226;2022-07-10T08:29:37;7.00;;;1.90;;
4724;SDS011;2376;53.544;10.226;2022-07-10T08:32:04;6.10;;;2.03;;
4724;SDS011;2376;53.544;10.226;2022-07-10T08:34:31;3.60;;;1.80;;
4724;SDS011;2376;53.544;10.226;2022-07-10T08:36:58;9.20;;;1.47;;
4724;SDS011;2376;53.544;10.226;2022-07-10T08:39:24;9.00;;;2.03;;
4724;SDS011;2376;53.544;10.226;2022-07-10T08:41:51;5.37;;;1.80;;
4724;SDS011;2376;53.544;10.226;2022-07-10T08:44:19;2.70;;;1.30;;
4724;SDS011;2376;53.544;10.226;2022-07-10T08:46:47;6.70;;;1.90;;
4724;SDS011;2376;53.544;10.226;2022-07-10T08:49:13;4.53;;;2.00;;
4724;SDS011;2376;53.544;10.226;2022-07-10T08:51:45;4.60;;;1.70;;
4724;SDS011;2376;53.544;10.226;2022-07-10T08:54:16;4.83;;;1.87;;
4724;SDS011;2376;53.544;10.226;2022-07-10T08:56:44;2.60;;;1.47;;
4724;SDS011;2376;53.544;10.226;2022-07-10T08:59:13;3.47;;;1.60;;
4724;SDS011;2376;53.544;10.226;2022-07-10T09:01:42;5.93;;;1.50;;
4724;SDS011;2376;53.544;10.226;2022-07-10T09:04:14;7.00;;;1.73;;
4724;SDS011;2376;53.544;10.226;2022-07-10T09:06:43;4.50;;;1.50;;
4724;SDS011;2376;53.544;10.226;2022-07-10T09:09:10;4.43;;;1.33;;
4724;SDS011;2376;53.544;10.226;2022-07-10T09:11:37;5.93;;;1.77;;
4724;SDS011;2376;53.544;10.226;2022-07-10T09:16:43;6.40;;;2.50;;
4724;SDS011;2376;53.544;10.226;2022-07-10T09:19:15;8.70;;;2.00;;
4724;SDS011;2376;53.544;10.226;2022-07-10T09:21:43;7.20;;;2.40;;
4724;SDS011;2376;53.544;10.226;2022-07-10T09:24:10;3.43;;;1.53;;
4724;SDS011;2376;53.544;10.226;2022-07-10T09:26:38;8.37;;;1.60;;
4724;SDS011;2376;53.544;10.226;2022-07-10T09:29:06;7.57;;;1.57;;
4724;SDS011;2376;53.544;10.226;2022-07-10T09:31:52;8.00;;;1.93;;
4724;SDS011;2376;53.544;10.226;2022-07-10T09:34:34;4.00;;;1.80;;
4724;SDS011;2376;53.544;10.226;2022-07-10T09:37:21;4.47;;;1.53;;
4724;SDS011;2376;53.544;10.226;2022-07-10T09:42:34;8.40;;;1.73;;
4724;SDS011;2376;53.544;10.226;2022-07-10T09:45:17;3.53;;;1.60;;
4724;SDS011;2376;53.544;10.226;2022-07-10T09:47:55;6.67;;;1.60;;
4724;SDS011;2376;53.544;10.226;2022-07-10T09:50:24;8.30;;;1.70;;
4724;SDS011;2376;53.544;10.226;2022-07-10T09:52:52;6.70;;;1.83;;
4724;SDS011;2376;53.544;10.226;2022-07-10T09:55:20;4.90;;;1.27;;
4724;SDS011;2376;53.544;10.226;2022-07-10T09:57:52;5.20;;;1.90;;
4724;SDS011;2376;53.544;10.226;2022-07-10T10:00:21;5.10;;;1.40;;
4724;SDS011;2376;53.544;10.226;2022-07-10T10:02:53;8.73;;;1.40;;
4724;SDS011;2376;53.544;10.226;2022-07-10T10:05:22;1.70;;;1.40;;
4724;SDS011;2376;53.544;10.226;2022-07-10T10:07:58;3.73;;;2.07;;
4724;SDS011;2376;53.544;10.226;2022-07-10T10:10:27;3.80;;;1.93;;
4724;SDS011;2376;53.544;10.226;2022-07-10T10:12:57;3.20;;;1.53;;
4724;SDS011;2376;53.544;10.226;2022-07-10T10:15:28;4.93;;;1.83;;
4724;SDS011;2376;53.544;10.226;2022-07-10T10:17:59;3.93;;;1.20;;
4724;SDS011;2376;53.544;10.226;2022-07-10T10:20:28;6.10;;;1.60;;
4724;SDS011;2376;53.544;10.226;2022-07-10T10:23:07;7.53;;;1.87;;
4724;SDS011;2376;53.544;10.226;2022-07-10T10:25:35;3.27;;;1.40;;
4724;SDS011;2376;53.544;10.226;2022-07-10T10:28:04;2.70;;;1.30;;
4724;SDS011;2376;53.544;10.226;2022-07-10T10:30:33;3.80;;;1.73;;
4724;SDS011;2376;53.544;10.226;2022-07-10T10:33:04;3.20;;;1.53;;
4724;SDS011;2376;53.544;10.226;2022-07-10T10:36:08;4.30;;;1.57;;
4724;SDS011;2376;53.544;10.226;2022-07-10T10:38:59;4.13;;;1.60;;
4724;SDS011;2376;53.544;10.226;2022-07-10T10:41:27;5.60;;;1.87;;
4724;SDS011;2376;53.544;10.226;2022-07-10T10:46:58;3.90;;;1.53;;
4724;SDS011;2376;53.544;10.226;2022-07-10T10:49:50;4.00;;;1.53;;
4724;SDS011;2376;53.544;10.226;2022-07-10T10:52:19;4.10;;;1.67;;
4724;SDS011;2376;53.544;10.226;2022-07-10T10:55:04;4.73;;;1.40;;
4724;SDS011;2376;53.544;10.226;2022-07-10T10:57:38;6.30;;;1.60;;
4724;SDS011;2376;53.544;10.226;2022-07-10T11:00:31;5.93;;;1.63;;
4724;SDS011;2376;53.544;10.226;2022-07-10T11:03:21;8.90;;;2.03;;
4724;SDS011;2376;53.544;10.226;2022-07-10T11:05:51;4.00;;;1.37;;
4724;SDS011;2376;53.544;10.226;2022-07-10T11:14:03;1.77;;;1.27;;
4724;SDS011;2376;53.544;10.226;2022-07-10T11:16:30;5.17;;;1.67;;
4724;SDS011;2376;53.544;10.226;2022-07-10T11:18:58;3.47;;;1.73;;
4724;SDS011;2376;53.544;10.226;2022-07-10T11:21:28;2.50;;;1.40;;
4724;SDS011;2376;53.544;10.226;2022-07-10T11:24:12;6.93;;;1.50;;
4724;SDS011;2376;53.544;10.226;2022-07-10T11:26:55;6.00;;;2.10;;
4724;SDS011;2376;53.544;10.226;2022-07-10T11:29:28;6.83;;;1.70;;
4724;SDS011;2376;53.544;10.226;2022-07-10T11:32:02;3.13;;;1.43;;
4724;SDS011;2376;53.544;10.226;2022-07-10T11:34:33;6.30;;;1.60;;
4724;SDS011;2376;53.544;10.226;2022-07-10T11:37:03;5.17;;;1.90;;
4724;SDS011;2376;53.544;10.226;2022-07-10T11:39:30;5.67;;;1.97;;
4724;SDS011;2376;53.544;10.226;2022-07-10T11:41:56;4.77;;;1.50;;
4724;SDS011;2376;53.544;10.226;2022-07-10T11:44:23;4.80;;;1.60;;
4724;SDS011;2376;53.544;10.226;2022-07-10T11:46:52;3.20;;;2.00;;
4724;SDS011;2376;53.544;10.226;2022-07-10T11:49:21;4.07;;;2.03;;
4724;SDS011;2376;53.544;10.226;2022-07-10T11:51:47;4.73;;;1.60;;
4724;SDS011;2376;53.544;10.226;2022-07-10T11:54:16;3.80;;;1.40;;
4724;SDS011;2376;53.544;10.226;2022-07-10T11:56:46;4.73;;;1.10;;
4724;SDS011;2376;53.544;10.226;2022-07-10T11:59:14;5.43;;;1.43;;
4724;SDS011;2376;53.544;10.226;2022-07-10T12:01:41;2.87;;;1.27;;
4724;SDS011;2376;53.544;10.226;2022-07-10T12:04:09;2.70;;;1.37;;
4724;SDS011;2376;53.544;10.226;2022-07-10T12:06:37;4.57;;;1.57;;
4724;SDS011;2376;53.544;10.226;2022-07-10T12:09:06;7.30;;;1.53;;
4724;SDS011;2376;53.544;10.226;2022-07-10T12:11:35;3.60;;;1.40;;
4724;SDS011;2376;53.544;10.226;2022-07-10T12:14:12;2.07;;;1.30;;
4724;SDS011;2376;53.544;10.226;2022-07-10T12:16:42;7.80;;;1.30;;
4724;SDS011;2376;53.544;10.226;2022-07-10T12:19:10;4.10;;;1.77;;
4724;SDS011;2376;53.544;10.226;2022-07-10T12:21:39;3.27;;;1.30;;
4724;SDS011;2376;53.544;10.226;2022-07-10T12:24:07;4.40;;;1.47;;
4724;SDS011;2376;53.544;10.226;2022-07-10T12:26:36;4.20;;;1.40;;
4724;SDS011;2376;53.544;10.226;2022-07-10T12:29:04;2.30;;;1.30;;
4724;SDS011;2376;53.544;10.226;2022-07-10T12:31:31;3.60;;;1.50;;
4724;SDS011;2376;53.544;10.226;2022-07-10T12:34:00;4.93;;;1.40;;
4724;SDS011;2376;53.544;10.226;2022-07-10T12:36:44;8.13;;;1.50;;
4724;SDS011;2376;53.544;10.226;2022-07-10T12:39:12;4.80;;;1.33;;
4724;SDS011;2376;53.544;10.226;2022-07-10T12:42:00;3.70;;;1.27;;
4724;SDS011;2376;53.544;10.226;2022-07-10T12:44:35;3.27;;;1.27;;
4724;SDS011;2376;53.544;10.226;2022-07-10T12:47:03;3.23;;;1.70;;
4724;SDS011;2376;53.544;10.226;2022-07-10T12:49:47;7.17;;;1.43;;
4724;SDS011;2376;53.544;10.226;2022-07-10T12:52:27;3.10;;;1.50;;
4724;SDS011;2376;53.544;10.226;2022-07-10T12:55:07;3.70;;;1.63;;
4724;SDS011;2376;53.544;10.226;2022-07-10T12:57:47;6.60;;;2.00;;
4724;SDS011;2376;53.544;10.226;2022-07-10T13:00:16;3.30;;;1.40;;
4724;SDS011;2376;53.544;10.226;2022-07-10T13:02:44;5.23;;;2.07;;
4724;SDS011;2376;53.544;10.226;2022-07-10T13:05:24;3.73;;;1.50;;
4724;SDS011;2376;53.544;10.226;2022-07-10T13:07:51;3.93;;;1.90;;
4724;SDS011;2376;53.544;10.226;2022-07-10T13:10:18;4.60;;;1.50;;
4724;SDS011;2376;53.544;10.226;2022-07-10T13:12:44;8.30;;;1.30;;
4724;SDS011;2376;53.544;10.226;2022-07-10T13:15:12;6.60;;;1.43;;
4724;SDS011;2376;53.544;10.226;2022-07-10T13:17:46;5.13;;;1.40;;
4724;SDS011;2376;53.544;10.226;2022-07-10T13:20:15;5.83;;;1.40;;
4724;SDS011;2376;53.544;10.226;2022-07-10T13:22:42;2.67;;;1.70;;
4724;SDS011;2376;53.544;10.226;2022-07-10T13:25:09;7.07;;;1.43;;
4724;SDS011;2376;53.544;10.226;2022-07-10T13:27:36;4.57;;;2.13;;
4724;SDS011;2376;53.544;10.226;2022-07-10T13:30:04;9.37;;;1.90;;
4724;SDS011;2376;53.544;10.226;2022-07-10T13:32:33;8.20;;;1.53;;
4724;SDS011;2376;53.544;10.226;2022-07-10T13:35:00;2.10;;;1.40;;
4724;SDS011;2376;53.544;10.226;2022-07-10T13:37:27;4.53;;;1.53;;
4724;SDS011;2376;53.544;10.226;2022-07-10T13:39:53;5.17;;;2.30;;
4724;SDS011;2376;53.544;10.226;2022-07-10T13:42:20;4.50;;;1.63;;
4724;SDS011;2376;53.544;10.226;2022-07-10T13:44:47;2.87;;;1.60;;
4724;SDS011;2376;53.544;10.226;2022-07-10T13:47:14;8.53;;;2.10;;
4724;SDS011;2376;53.544;10.226;2022-07-10T13:49:42;3.43;;;1.73;;
4724;SDS011;2376;53.544;10.226;2022-07-10T13:52:08;5.60;;;1.87;;
4724;SDS011;2376;53.544;10.226;2022-07-10T13:54:35;2.90;;;1.20;;
4724;SDS011;2376;53.544;10.226;2022-07-10T13:57:02;5.43;;;2.10;;
4724;SDS011;2376;53.544;10.226;2022-07-10T13:59:30;2.63;;;1.47;;
4724;SDS011;2376;53.544;10.226;2022-07-10T14:01:57;4.77;;;2.23;;
4724;SDS011;2376;53.544;10.226;2022-07-10T14:04:23;10.97;;;1.50;;
4724;SDS011;2376;53.544;10.226;2022-07-10T14:06:51;3.60;;;1.60;;
4724;SDS011;2376;53.544;10.226;2022-07-10T14:09:19;5.37;;;1.70;;
4724;SDS011;2376;53.544;10.226;2022-07-10T14:11:48;5.80;;;1.60;;
4724;SDS011;2376;53.544;10.226;2022-07-10T14:14:14;3.47;;;1.50;;
4724;SDS011;2376;53.544;10.226;2022-07-10T14:16:41;13.63;;;1.40;;
4724;SDS011;2376;53.544;10.226;2022-07-10T14:19:08;1.93;;;1.30;;
4724;SDS011;2376;53.544;10.226;2022-07-10T14:21:35;2.87;;;1.60;;
4724;SDS011;2376;53.544;10.226;2022-07-10T14:24:05;5.30;;;1.57;;
4724;SDS011;2376;53.544;10.226;2022-07-10T14:26:32;4.37;;;1.30;;
4724;SDS011;2376;53.544;10.226;2022-07-10T14:29:01;4.10;;;1.77;;
4724;SDS011;2376;53.544;10.226;2022-07-10T14:31:28;3.60;;;1.70;;
4724;SDS011;2376;53.544;10.226;2022-07-10T14:33:55;4.47;;;1.50;;
4724;SDS011;2376;53.544;10.226;2022-07-10T14:36:22;3.33;;;1.60;;
4724;SDS011;2376;53.544;10.226;2022-07-10T14:38:51;2.47;;;1.40;;
4724;SDS011;2376;53.544;10.226;2022-07-10T14:41:19;4.30;;;1.23;;
4724;SDS011;2376;53.544;10.226;2022-07-10T14:43:46;3.53;;;1.57;;
4724;SDS011;2376;53.544;10.226;2022-07-10T14:46:13;2.03;;;1.47;;
4724;SDS011;2376;53.544;10.226;2022-07-10T14:48:40;6.10;;;1.50;;
4724;SDS011;2376;53.544;10.226;2022-07-10T14:51:06;5.10;;;1.80;;
4724;SDS011;2376;53.544;10.226;2022-07-10T14:53:33;5.83;;;1.60;;
4724;SDS011;2376;53.544;10.226;2022-07-10T14:56:01;3.90;;;1.93;;
4724;SDS011;2376;53.544;10.226;2022-07-10T14:58:29;5.03;;;1.53;;
4724;SDS011;2376;53.544;10.226;2022-07-10T15:00:56;4.60;;;1.37;;
4724;SDS011;2376;53.544;10.226;2022-07-10T15:03:23;2.00;;;1.30;;
4724;SDS011;2376;53.544;10.226;2022-07-10T15:05:50;4.27;;;1.63;;
4724;SDS011;2376;53.544;10.226;2022-07-10T15:08:17;4.40;;;1.90;;
4724;SDS011;2376;53.544;10.226;2022-07-10T15:10:45;5.27;;;1.80;;
4724;SDS011;2376;53.544;10.226;2022-07-10T15:13:12;6.50;;;1.40;;
4724;SDS011;2376;53.544;10.226;2022-07-10T15:15:40;3.27;;;1.40;;
4724;SDS011;2376;53.544;10.226;2022-07-10T15:18:08;3.13;;;1.20;;
4724;SDS011;2376;53.544;10.226;2022-07-10T15:20:35;2.50;;;1.47;;
4724;SDS011;2376;53.544;10.226;2022-07-10T15:23:03;5.10;;;1.33;;